sensor_id;sensor_type;location;lat;lon;timestamp;P1;durP1;ratioP1;P2;durP2;ratioP2
11588;SDS011;5850;51.360;12.362;2023-03-04T00:01:34;12.60;;;8.73;;
11588;SDS011;5850;51.360;12.362;2023-03-04T00:04:03;11.27;;;8.43;;
11588;SDS011;5850;51.360;12.362;2023-03-04T00:06:32;12.13;;;9.30;;
11588;SDS011;5850;51.360;12.362;2023-03-04T00:09:00;13.37;;;9.27;;
11588;SDS011;5850;51.360;12.362;2023-03-04T00:11:30;14.17;;;9.83;;
11588;SDS011;5850;51.360;12.362;2023-03-04T00:13:58;13.47;;;9.00;;
11588;SDS011;5850;51.360;12.362;2023-03-04T00:16:27;14.43;;;9.83;;
11588;SDS011;5850;51.360;12.362;2023-03-04T00:18:56;14.20;;;9.90;;
11588;SDS011;5850;51.360;12.362;2023-03-04T00:21:24;14.60;;;9.63;;
11588;SDS011;5850;51.360;12.362;2023-03-04T00:23:53;14.03;;;9.60;;
11588;SDS011;5850;51.360;12.362;2023-03-04T00:26:21;16.20;;;10.83;;
11588;SDS011;5850;51.360;12.362;2023-03-04T00:28:50;15.80;;;10.63;;
11588;SDS011;5850;51.360;12.362;2023-03-04T00:31:18;19.47;;;11.03;;
11588;SDS011;5850;51.360;12.362;2023-03-04T00:33:46;18.50;;;11.83;;
11588;SDS011;5850;51.360;12.362;2023-03-04T00:36:15;18.67;;;12.80;;
11588;SDS011;5850;51.360;12.362;2023-03-04T00:38:43;20.87;;;12.47;;
11588;SDS011;5850;51.360;12.362;2023-03-04T00:41:12;22.30;;;13.60;;
11588;SDS011;5850;51.360;12.362;2023-03-04T00:43:40;19.73;;;13.67;;
11588;SDS011;5850;51.360;12.362;2023-03-04T00:46:09;21.37;;;13.50;;
11588;SDS011;5850;51.360;12.362;2023-03-04T00:48:37;22.53;;;14.23;;
11588;SDS011;5850;51.360;12.362;2023-03-04T00:51:06;23.47;;;14.20;;
11588;SDS011;5850;51.360;12.362;2023-03-04T00:53:35;24.83;;;14.60;;
11588;SDS011;5850;51.360;12.362;2023-03-04T00:56:03;23.70;;;15.77;;
11588;SDS011;5850;51.360;12.362;2023-03-04T00:58:32;26.93;;;15.73;;
11588;SDS011;5850;51.360;12.362;2023-03-04T01:01:00;23.40;;;14.77;;
11588;SDS011;5850;51.360;12.362;2023-03-04T01:03:29;24.37;;;15.30;;
11588;SDS011;5850;51.360;12.362;2023-03-04T01:05:58;25.70;;;15.73;;
11588;SDS011;5850;51.360;12.362;2023-03-04T01:08:27;24.47;;;14.30;;
11588;SDS011;5850;51.360;12.362;2023-03-04T01:10:55;23.13;;;14.60;;
11588;SDS011;5850;51.360;12.362;2023-03-04T01:13:24;25.37;;;14.13;;
11588;SDS011;5850;51.360;12.362;2023-03-04T01:15:52;23.67;;;13.57;;
11588;SDS011;5850;51.360;12.362;2023-03-04T01:18:21;21.77;;;14.10;;
11588;SDS011;5850;51.360;12.362;2023-03-04T01:20:50;21.43;;;14.33;;
11588;SDS011;5850;51.360;12.362;2023-03-04T01:23:19;22.37;;;13.37;;
11588;SDS011;5850;51.360;12.362;2023-03-04T01:25:47;19.20;;;12.57;;
11588;SDS011;5850;51.360;12.362;2023-03-04T01:28:15;22.67;;;13.77;;
11588;SDS011;5850;51.360;12.362;2023-03-04T01:30:44;17.83;;;12.57;;
11588;SDS011;5850;51.360;12.362;2023-03-04T01:33:12;23.03;;;13.03;;
11588;SDS011;5850;51.360;12.362;2023-03-04T01:35:41;18.17;;;12.17;;
11588;SDS011;5850;51.360;12.362;2023-03-04T01:38:09;19.37;;;12.37;;
11588;SDS011;5850;51.360;12.362;2023-03-04T01:40:39;19.17;;;11.87;;
11588;SDS011;5850;51.360;12.362;2023-03-04T01:43:10;18.90;;;11.77;;
11588;SDS011;5850;51.360;12.362;2023-03-04T01:45:47;19.60;;;11.40;;
11588;SDS011;5850;51.360;12.362;2023-03-04T01:48:18;19.77;;;12.00;;
11588;SDS011;5850;51.360;12.362;2023-03-04T01:50:55;19.80;;;12.40;;
11588;SDS011;5850;51.360;12.362;2023-03-04T01:53:28;20.50;;;12.77;;
11588;SDS011;5850;51.360;12.362;2023-03-04T01:56:02;18.43;;;11.40;;
11588;SDS011;5850;51.360;12.362;2023-03-04T01:59:12;18.70;;;11.80;;
11588;SDS011;5850;51.360;12.362;2023-03-04T02:01:43;18.10;;;11.87;;
11588;SDS011;5850;51.360;12.362;2023-03-04T02:04:18;16.07;;;11.37;;
11588;SDS011;5850;51.360;12.362;2023-03-04T02:06:50;18.57;;;11.87;;
11588;SDS011;5850;51.360;12.362;2023-03-04T02:09:19;21.27;;;12.47;;
11588;SDS011;5850;51.360;12.362;2023-03-04T02:11:50;20.10;;;12.03;;
11588;SDS011;5850;51.360;12.362;2023-03-04T02:14:20;18.60;;;12.40;;
11588;SDS011;5850;51.360;12.362;2023-03-04T02:16:49;15.80;;;11.33;;
11588;SDS011;5850;51.360;12.362;2023-03-04T02:22:26;18.70;;;11.73;;
11588;SDS011;5850;51.360;12.362;2023-03-04T02:25:03;19.80;;;12.53;;
11588;SDS011;5850;51.360;12.362;2023-03-04T02:27:40;20.83;;;12.27;;
11588;SDS011;5850;51.360;12.362;2023-03-04T02:30:09;16.77;;;10.83;;
11588;SDS011;5850;51.360;12.362;2023-03-04T02:32:39;20.73;;;12.37;;
11588;SDS011;5850;51.360;12.362;2023-03-04T02:35:08;19.70;;;11.87;;
11588;SDS011;5850;51.360;12.362;2023-03-04T02:37:43;18.20;;;11.97;;
11588;SDS011;5850;51.360;12.362;2023-03-04T02:40:22;21.23;;;12.83;;
11588;SDS011;5850;51.360;12.362;2023-03-04T02:42:59;18.77;;;11.87;;
11588;SDS011;5850;51.360;12.362;2023-03-04T02:48:02;17.53;;;11.07;;
11588;SDS011;5850;51.360;12.362;2023-03-04T02:50:33;18.27;;;11.83;;
11588;SDS011;5850;51.360;12.362;2023-03-04T02:53:05;17.57;;;12.23;;
11588;SDS011;5850;51.360;12.362;2023-03-04T02:55:34;20.70;;;12.80;;
11588;SDS011;5850;51.360;12.362;2023-03-04T02:58:03;21.33;;;12.73;;
11588;SDS011;5850;51.360;12.362;2023-03-04T03:00:31;19.23;;;12.40;;
11588;SDS011;5850;51.360;12.362;2023-03-04T03:03:00;20.57;;;13.07;;
11588;SDS011;5850;51.360;12.362;2023-03-04T03:05:30;19.60;;;11.90;;
11588;SDS011;5850;51.360;12.362;2023-03-04T03:08:02;18.10;;;12.07;;
11588;SDS011;5850;51.360;12.362;2023-03-04T03:10:30;22.70;;;13.10;;
11588;SDS011;5850;51.360;12.362;2023-03-04T03:12:59;18.13;;;12.60;;
11588;SDS011;5850;51.360;12.362;2023-03-04T03:15:28;19.17;;;12.00;;
11588;SDS011;5850;51.360;12.362;2023-03-04T03:17:56;23.20;;;12.67;;
11588;SDS011;5850;51.360;12.362;2023-03-04T03:20:25;19.90;;;13.37;;
11588;SDS011;5850;51.360;12.362;2023-03-04T03:22:53;19.97;;;12.97;;
11588;SDS011;5850;51.360;12.362;2023-03-04T03:25:22;22.90;;;12.73;;
11588;SDS011;5850;51.360;12.362;2023-03-04T03:27:50;19.67;;;13.00;;
11588;SDS011;5850;51.360;12.362;2023-03-04T03:30:19;22.73;;;14.20;;
11588;SDS011;5850;51.360;12.362;2023-03-04T03:32:47;22.07;;;12.53;;
11588;SDS011;5850;51.360;12.362;2023-03-04T03:35:16;20.50;;;13.40;;
11588;SDS011;5850;51.360;12.362;2023-03-04T03:37:44;18.33;;;12.10;;
11588;SDS011;5850;51.360;12.362;2023-03-04T03:40:14;21.37;;;13.23;;
11588;SDS011;5850;51.360;12.362;2023-03-04T03:42:42;18.57;;;12.93;;
11588;SDS011;5850;51.360;12.362;2023-03-04T03:45:11;21.20;;;13.40;;
11588;SDS011;5850;51.360;12.362;2023-03-04T03:47:39;22.57;;;12.73;;
11588;SDS011;5850;51.360;12.362;2023-03-04T03:50:08;23.13;;;13.97;;
11588;SDS011;5850;51.360;12.362;2023-03-04T03:52:37;23.97;;;13.40;;
11588;SDS011;5850;51.360;12.362;2023-03-04T03:55:05;24.63;;;12.60;;
11588;SDS011;5850;51.360;12.362;2023-03-04T03:57:34;20.77;;;12.23;;
11588;SDS011;5850;51.360;12.362;2023-03-04T04:00:03;21.27;;;13.20;;
11588;SDS011;5850;51.360;12.362;2023-03-04T04:02:33;21.67;;;12.73;;
11588;SDS011;5850;51.360;12.362;2023-03-04T04:05:02;21.23;;;13.03;;
11588;SDS011;5850;51.360;12.362;2023-03-04T04:07:31;20.83;;;13.10;;
11588;SDS011;5850;51.360;12.362;2023-03-04T04:09:59;19.37;;;11.87;;
11588;SDS011;5850;51.360;12.362;2023-03-04T04:12:28;21.23;;;12.33;;
11588;SDS011;5850;51.360;12.362;2023-03-04T04:14:56;22.03;;;12.73;;
11588;SDS011;5850;51.360;12.362;2023-03-04T04:17:25;22.23;;;12.53;;
11588;SDS011;5850;51.360;12.362;2023-03-04T04:19:53;23.63;;;13.30;;
11588;SDS011;5850;51.360;12.362;2023-03-04T04:22:22;23.33;;;13.43;;
11588;SDS011;5850;51.360;12.362;2023-03-04T04:24:50;18.53;;;12.80;;
11588;SDS011;5850;51.360;12.362;2023-03-04T04:27:19;24.87;;;12.40;;
11588;SDS011;5850;51.360;12.362;2023-03-04T04:29:48;19.30;;;12.30;;
11588;SDS011;5850;51.360;12.362;2023-03-04T04:32:16;18.67;;;12.40;;
11588;SDS011;5850;51.360;12.362;2023-03-04T04:34:45;21.90;;;13.27;;
11588;SDS011;5850;51.360;12.362;2023-03-04T04:37:13;20.00;;;12.73;;
11588;SDS011;5850;51.360;12.362;2023-03-04T04:39:44;24.00;;;13.67;;
11588;SDS011;5850;51.360;12.362;2023-03-04T04:42:12;21.37;;;12.27;;
11588;SDS011;5850;51.360;12.362;2023-03-04T04:44:41;22.27;;;11.57;;
11588;SDS011;5850;51.360;12.362;2023-03-04T04:47:10;19.40;;;11.60;;
11588;SDS011;5850;51.360;12.362;2023-03-04T04:49:38;18.20;;;11.17;;
11588;SDS011;5850;51.360;12.362;2023-03-04T04:52:06;23.45;;;12.60;;
11588;SDS011;5850;51.360;12.362;2023-03-04T04:54:35;20.40;;;11.70;;
11588;SDS011;5850;51.360;12.362;2023-03-04T04:57:03;19.43;;;11.87;;
11588;SDS011;5850;51.360;12.362;2023-03-04T04:59:32;18.90;;;11.17;;
11588;SDS011;5850;51.360;12.362;2023-03-04T05:02:00;20.63;;;11.00;;
11588;SDS011;5850;51.360;12.362;2023-03-04T05:04:29;15.87;;;10.17;;
11588;SDS011;5850;51.360;12.362;2023-03-04T05:06:57;17.57;;;9.97;;
11588;SDS011;5850;51.360;12.362;2023-03-04T05:09:26;22.73;;;11.40;;
11588;SDS011;5850;51.360;12.362;2023-03-04T05:11:54;19.67;;;9.47;;
11588;SDS011;5850;51.360;12.362;2023-03-04T05:14:23;23.23;;;12.20;;
11588;SDS011;5850;51.360;12.362;2023-03-04T05:16:51;19.03;;;11.10;;
11588;SDS011;5850;51.360;12.362;2023-03-04T05:19:20;18.20;;;10.63;;
11588;SDS011;5850;51.360;12.362;2023-03-04T05:21:48;17.95;;;11.13;;
11588;SDS011;5850;51.360;12.362;2023-03-04T05:24:17;19.07;;;10.57;;
11588;SDS011;5850;51.360;12.362;2023-03-04T05:26:46;17.97;;;10.27;;
11588;SDS011;5850;51.360;12.362;2023-03-04T05:29:14;19.27;;;9.73;;
11588;SDS011;5850;51.360;12.362;2023-03-04T05:31:43;21.33;;;11.23;;
11588;SDS011;5850;51.360;12.362;2023-03-04T05:34:11;22.90;;;11.40;;
11588;SDS011;5850;51.360;12.362;2023-03-04T05:36:40;17.47;;;10.57;;
11588;SDS011;5850;51.360;12.362;2023-03-04T05:39:08;22.27;;;11.30;;
11588;SDS011;5850;51.360;12.362;2023-03-04T05:41:37;21.97;;;9.93;;
11588;SDS011;5850;51.360;12.362;2023-03-04T05:44:05;21.07;;;11.17;;
11588;SDS011;5850;51.360;12.362;2023-03-04T05:46:34;20.23;;;10.97;;
11588;SDS011;5850;51.360;12.362;2023-03-04T05:49:02;18.50;;;10.93;;
11588;SDS011;5850;51.360;12.362;2023-03-04T05:51:31;22.20;;;11.37;;
11588;SDS011;5850;51.360;12.362;2023-03-04T05:53:59;20.83;;;10.50;;
11588;SDS011;5850;51.360;12.362;2023-03-04T05:56:28;18.57;;;10.03;;
11588;SDS011;5850;51.360;12.362;2023-03-04T05:58:58;16.23;;;10.10;;
11588;SDS011;5850;51.360;12.362;2023-03-04T06:01:27;17.90;;;10.30;;
11588;SDS011;5850;51.360;12.362;2023-03-04T06:03:56;18.38;;;11.48;;
11588;SDS011;5850;51.360;12.362;2023-03-04T06:06:25;17.23;;;10.37;;
11588;SDS011;5850;51.360;12.362;2023-03-04T06:08:53;17.17;;;9.30;;
11588;SDS011;5850;51.360;12.362;2023-03-04T06:11:22;24.43;;;11.07;;
11588;SDS011;5850;51.360;12.362;2023-03-04T06:13:50;23.83;;;11.00;;
11588;SDS011;5850;51.360;12.362;2023-03-04T06:16:19;22.07;;;11.13;;
11588;SDS011;5850;51.360;12.362;2023-03-04T06:18:47;20.37;;;10.60;;
11588;SDS011;5850;51.360;12.362;2023-03-04T06:21:16;23.17;;;11.87;;
11588;SDS011;5850;51.360;12.362;2023-03-04T06:23:44;16.80;;;9.50;;
11588;SDS011;5850;51.360;12.362;2023-03-04T06:26:13;19.63;;;10.13;;
11588;SDS011;5850;51.360;12.362;2023-03-04T06:28:42;18.03;;;10.40;;
11588;SDS011;5850;51.360;12.362;2023-03-04T06:31:11;18.93;;;10.83;;
11588;SDS011;5850;51.360;12.362;2023-03-04T06:33:39;19.00;;;10.33;;
11588;SDS011;5850;51.360;12.362;2023-03-04T06:36:08;18.93;;;10.03;;
11588;SDS011;5850;51.360;12.362;2023-03-04T06:38:36;17.20;;;10.33;;
11588;SDS011;5850;51.360;12.362;2023-03-04T06:41:06;15.30;;;9.67;;
11588;SDS011;5850;51.360;12.362;2023-03-04T06:43:35;18.60;;;10.00;;
11588;SDS011;5850;51.360;12.362;2023-03-04T06:46:05;19.20;;;9.67;;
11588;SDS011;5850;51.360;12.362;2023-03-04T06:48:34;15.70;;;9.27;;
11588;SDS011;5850;51.360;12.362;2023-03-04T06:51:06;17.60;;;8.47;;
11588;SDS011;5850;51.360;12.362;2023-03-04T06:53:37;18.30;;;10.07;;
11588;SDS011;5850;51.360;12.362;2023-03-04T06:56:07;17.43;;;9.50;;
11588;SDS011;5850;51.360;12.362;2023-03-04T06:58:38;18.60;;;9.50;;
11588;SDS011;5850;51.360;12.362;2023-03-04T07:03:49;21.60;;;10.17;;
11588;SDS011;5850;51.360;12.362;2023-03-04T07:06:20;15.67;;;9.27;;
11588;SDS011;5850;51.360;12.362;2023-03-04T07:08:51;16.80;;;10.07;;
11588;SDS011;5850;51.360;12.362;2023-03-04T07:11:20;15.40;;;9.63;;
11588;SDS011;5850;51.360;12.362;2023-03-04T07:13:49;15.87;;;9.40;;
11588;SDS011;5850;51.360;12.362;2023-03-04T07:16:19;15.63;;;9.57;;
11588;SDS011;5850;51.360;12.362;2023-03-04T07:18:49;18.10;;;10.43;;
11588;SDS011;5850;51.360;12.362;2023-03-04T07:21:17;20.47;;;9.43;;
11588;SDS011;5850;51.360;12.362;2023-03-04T07:23:46;18.10;;;9.47;;
11588;SDS011;5850;51.360;12.362;2023-03-04T07:26:15;15.33;;;9.00;;
11588;SDS011;5850;51.360;12.362;2023-03-04T07:28:43;16.13;;;8.67;;
11588;SDS011;5850;51.360;12.362;2023-03-04T07:31:19;23.23;;;9.77;;
11588;SDS011;5850;51.360;12.362;2023-03-04T07:33:54;18.30;;;8.70;;
11588;SDS011;5850;51.360;12.362;2023-03-04T07:36:25;18.57;;;9.70;;
11588;SDS011;5850;51.360;12.362;2023-03-04T07:38:54;14.87;;;8.73;;
11588;SDS011;5850;51.360;12.362;2023-03-04T07:41:24;19.20;;;9.90;;
11588;SDS011;5850;51.360;12.362;2023-03-04T07:43:55;23.43;;;8.53;;
11588;SDS011;5850;51.360;12.362;2023-03-04T07:46:25;19.90;;;9.93;;
11588;SDS011;5850;51.360;12.362;2023-03-04T07:48:53;16.10;;;8.40;;
11588;SDS011;5850;51.360;12.362;2023-03-04T07:51:23;14.90;;;8.90;;
11588;SDS011;5850;51.360;12.362;2023-03-04T07:53:59;20.63;;;8.47;;
11588;SDS011;5850;51.360;12.362;2023-03-04T07:56:29;16.67;;;8.80;;
11588;SDS011;5850;51.360;12.362;2023-03-04T07:59:00;12.33;;;7.00;;
11588;SDS011;5850;51.360;12.362;2023-03-04T08:01:33;14.87;;;8.03;;
11588;SDS011;5850;51.360;12.362;2023-03-04T08:04:04;15.23;;;7.53;;
11588;SDS011;5850;51.360;12.362;2023-03-04T08:06:34;16.07;;;7.30;;
11588;SDS011;5850;51.360;12.362;2023-03-04T08:09:03;14.93;;;7.00;;
11588;SDS011;5850;51.360;12.362;2023-03-04T08:11:34;15.77;;;6.10;;
11588;SDS011;5850;51.360;12.362;2023-03-04T08:14:04;13.27;;;6.07;;
11588;SDS011;5850;51.360;12.362;2023-03-04T08:16:34;12.83;;;5.73;;
11588;SDS011;5850;51.360;12.362;2023-03-04T08:19:03;16.03;;;6.70;;
11588;SDS011;5850;51.360;12.362;2023-03-04T08:21:32;13.57;;;5.80;;
11588;SDS011;5850;51.360;12.362;2023-03-04T08:24:01;11.30;;;5.73;;
11588;SDS011;5850;51.360;12.362;2023-03-04T08:26:41;10.37;;;4.73;;
11588;SDS011;5850;51.360;12.362;2023-03-04T08:29:15;12.50;;;5.30;;
11588;SDS011;5850;51.360;12.362;2023-03-04T08:31:48;8.63;;;4.53;;
11588;SDS011;5850;51.360;12.362;2023-03-04T08:34:19;10.15;;;5.20;;
11588;SDS011;5850;51.360;12.362;2023-03-04T08:36:49;9.73;;;4.97;;
11588;SDS011;5850;51.360;12.362;2023-03-04T08:39:18;7.00;;;4.27;;
11588;SDS011;5850;51.360;12.362;2023-03-04T08:41:47;9.00;;;3.63;;
11588;SDS011;5850;51.360;12.362;2023-03-04T08:44:16;8.87;;;4.50;;
11588;SDS011;5850;51.360;12.362;2023-03-04T08:46:44;11.73;;;4.07;;
11588;SDS011;5850;51.360;12.362;2023-03-04T08:49:13;10.73;;;4.57;;
11588;SDS011;5850;51.360;12.362;2023-03-04T08:51:41;9.50;;;3.80;;
11588;SDS011;5850;51.360;12.362;2023-03-04T08:54:10;9.75;;;4.10;;
11588;SDS011;5850;51.360;12.362;2023-03-04T08:56:39;9.97;;;3.67;;
11588;SDS011;5850;51.360;12.362;2023-03-04T08:59:08;17.07;;;4.10;;
11588;SDS011;5850;51.360;12.362;2023-03-04T09:01:36;5.50;;;3.50;;
11588;SDS011;5850;51.360;12.362;2023-03-04T09:04:05;9.70;;;4.17;;
11588;SDS011;5850;51.360;12.362;2023-03-04T09:06:34;9.00;;;3.80;;
11588;SDS011;5850;51.360;12.362;2023-03-04T09:09:03;7.60;;;3.87;;
11588;SDS011;5850;51.360;12.362;2023-03-04T09:11:31;7.43;;;3.40;;
11588;SDS011;5850;51.360;12.362;2023-03-04T09:14:00;6.87;;;4.07;;
11588;SDS011;5850;51.360;12.362;2023-03-04T09:16:28;10.50;;;3.67;;
11588;SDS011;5850;51.360;12.362;2023-03-04T09:18:56;8.30;;;2.97;;
11588;SDS011;5850;51.360;12.362;2023-03-04T09:21:26;5.30;;;3.33;;
11588;SDS011;5850;51.360;12.362;2023-03-04T09:23:55;8.40;;;3.17;;
11588;SDS011;5850;51.360;12.362;2023-03-04T09:26:24;6.67;;;3.13;;
11588;SDS011;5850;51.360;12.362;2023-03-04T09:28:59;10.37;;;3.60;;
11588;SDS011;5850;51.360;12.362;2023-03-04T09:31:28;4.17;;;2.93;;
11588;SDS011;5850;51.360;12.362;2023-03-04T09:33:57;8.60;;;3.60;;
11588;SDS011;5850;51.360;12.362;2023-03-04T09:36:26;8.40;;;3.53;;
11588;SDS011;5850;51.360;12.362;2023-03-04T09:38:57;9.27;;;3.20;;
11588;SDS011;5850;51.360;12.362;2023-03-04T09:41:38;4.03;;;2.60;;
11588;SDS011;5850;51.360;12.362;2023-03-04T09:44:14;11.00;;;4.37;;
11588;SDS011;5850;51.360;12.362;2023-03-04T09:46:51;5.40;;;2.77;;
11588;SDS011;5850;51.360;12.362;2023-03-04T09:49:21;7.40;;;2.90;;
11588;SDS011;5850;51.360;12.362;2023-03-04T09:51:54;5.50;;;2.63;;
11588;SDS011;5850;51.360;12.362;2023-03-04T09:54:49;6.35;;;2.90;;
11588;SDS011;5850;51.360;12.362;2023-03-04T10:01:03;6.30;;;2.70;;
11588;SDS011;5850;51.360;12.362;2023-03-04T10:03:40;6.07;;;2.80;;
11588;SDS011;5850;51.360;12.362;2023-03-04T10:06:19;6.53;;;3.07;;
11588;SDS011;5850;51.360;12.362;2023-03-04T10:16:53;5.07;;;2.77;;
11588;SDS011;5850;51.360;12.362;2023-03-04T10:21:56;7.67;;;2.87;;
11588;SDS011;5850;51.360;12.362;2023-03-04T10:24:26;5.03;;;2.73;;
11588;SDS011;5850;51.360;12.362;2023-03-04T10:26:59;5.50;;;2.67;;
11588;SDS011;5850;51.360;12.362;2023-03-04T10:29:33;5.82;;;3.00;;
11588;SDS011;5850;51.360;12.362;2023-03-04T10:32:01;5.70;;;2.90;;
11588;SDS011;5850;51.360;12.362;2023-03-04T10:34:31;7.63;;;3.13;;
11588;SDS011;5850;51.360;12.362;2023-03-04T10:37:00;8.30;;;3.10;;
11588;SDS011;5850;51.360;12.362;2023-03-04T10:47:27;6.67;;;3.17;;
11588;SDS011;5850;51.360;12.362;2023-03-04T10:49:58;4.17;;;2.60;;
11588;SDS011;5850;51.360;12.362;2023-03-04T10:52:31;2.80;;;2.47;;
11588;SDS011;5850;51.360;12.362;2023-03-04T10:55:16;3.90;;;2.40;;
11588;SDS011;5850;51.360;12.362;2023-03-04T10:58:12;3.87;;;2.27;;
11588;SDS011;5850;51.360;12.362;2023-03-04T11:00:44;5.63;;;2.50;;
11588;SDS011;5850;51.360;12.362;2023-03-04T11:06:38;5.87;;;2.43;;
11588;SDS011;5850;51.360;12.362;2023-03-04T11:08:52;4.40;;;2.87;;
11588;SDS011;5850;51.360;12.362;2023-03-04T11:11:39;4.27;;;2.30;;
11588;SDS011;5850;51.360;12.362;2023-03-04T11:16:57;7.73;;;3.20;;
11588;SDS011;5850;51.360;12.362;2023-03-04T11:19:29;5.60;;;2.40;;
11588;SDS011;5850;51.360;12.362;2023-03-04T11:22:08;4.57;;;2.23;;
11588;SDS011;5850;51.360;12.362;2023-03-04T11:24:41;4.33;;;2.50;;
11588;SDS011;5850;51.360;12.362;2023-03-04T11:27:17;4.27;;;2.47;;
11588;SDS011;5850;51.360;12.362;2023-03-04T11:30:41;6.20;;;2.77;;
11588;SDS011;5850;51.360;12.362;2023-03-04T11:36:32;5.83;;;2.20;;
11588;SDS011;5850;51.360;12.362;2023-03-04T11:42:20;2.93;;;2.30;;
11588;SDS011;5850;51.360;12.362;2023-03-04T11:45:15;2.60;;;2.17;;
11588;SDS011;5850;51.360;12.362;2023-03-04T11:51:22;6.43;;;2.80;;
11588;SDS011;5850;51.360;12.362;2023-03-04T11:54:44;5.20;;;2.83;;
11588;SDS011;5850;51.360;12.362;2023-03-04T11:57:04;3.03;;;2.50;;
11588;SDS011;5850;51.360;12.362;2023-03-04T12:02:21;5.63;;;2.67;;
11588;SDS011;5850;51.360;12.362;2023-03-04T12:10:24;4.10;;;2.20;;
11588;SDS011;5850;51.360;12.362;2023-03-04T12:24:41;3.97;;;2.27;;
11588;SDS011;5850;51.360;12.362;2023-03-04T12:46:07;5.07;;;2.90;;
11588;SDS011;5850;51.360;12.362;2023-03-04T12:55:38;4.60;;;3.23;;
11588;SDS011;5850;51.360;12.362;2023-03-04T12:58:17;6.13;;;3.50;;
11588;SDS011;5850;51.360;12.362;2023-03-04T13:04:29;5.60;;;3.30;;
11588;SDS011;5850;51.360;12.362;2023-03-04T13:16:41;4.50;;;3.27;;
11588;SDS011;5850;51.360;12.362;2023-03-04T13:41:47;5.63;;;2.63;;
11588;SDS011;5850;51.360;12.362;2023-03-04T13:44:30;3.90;;;2.23;;
11588;SDS011;5850;51.360;12.362;2023-03-04T13:47:15;4.47;;;2.33;;
11588;SDS011;5850;51.360;12.362;2023-03-04T13:49:47;4.20;;;2.47;;
11588;SDS011;5850;51.360;12.362;2023-03-04T13:52:36;5.50;;;2.97;;
11588;SDS011;5850;51.360;12.362;2023-03-04T13:55:32;8.60;;;3.00;;
11588;SDS011;5850;51.360;12.362;2023-03-04T13:58:16;7.93;;;3.80;;
11588;SDS011;5850;51.360;12.362;2023-03-04T14:00:53;4.20;;;3.33;;
11588;SDS011;5850;51.360;12.362;2023-03-04T14:03:24;7.83;;;3.63;;
11588;SDS011;5850;51.360;12.362;2023-03-04T14:06:09;7.27;;;3.93;;
11588;SDS011;5850;51.360;12.362;2023-03-04T14:08:49;7.43;;;3.70;;
11588;SDS011;5850;51.360;12.362;2023-03-04T14:13:50;11.57;;;4.67;;
11588;SDS011;5850;51.360;12.362;2023-03-04T14:16:23;10.00;;;4.43;;
11588;SDS011;5850;51.360;12.362;2023-03-04T14:18:55;10.17;;;5.40;;
11588;SDS011;5850;51.360;12.362;2023-03-04T14:21:32;8.77;;;4.30;;
11588;SDS011;5850;51.360;12.362;2023-03-04T14:24:03;6.13;;;3.90;;
11588;SDS011;5850;51.360;12.362;2023-03-04T14:26:35;4.20;;;3.43;;
11588;SDS011;5850;51.360;12.362;2023-03-04T14:29:18;8.03;;;3.27;;
11588;SDS011;5850;51.360;12.362;2023-03-04T14:31:54;7.50;;;3.00;;
11588;SDS011;5850;51.360;12.362;2023-03-04T14:34:29;4.93;;;3.13;;
11588;SDS011;5850;51.360;12.362;2023-03-04T14:37:02;5.27;;;3.50;;
11588;SDS011;5850;51.360;12.362;2023-03-04T14:39:56;4.70;;;3.10;;
11588;SDS011;5850;51.360;12.362;2023-03-04T14:42:38;6.70;;;2.80;;
11588;SDS011;5850;51.360;12.362;2023-03-04T14:45:11;5.33;;;2.73;;
11588;SDS011;5850;51.360;12.362;2023-03-04T14:47:43;11.40;;;3.30;;
11588;SDS011;5850;51.360;12.362;2023-03-04T14:50:17;8.17;;;3.63;;
11588;SDS011;5850;51.360;12.362;2023-03-04T14:52:47;5.33;;;3.40;;
11588;SDS011;5850;51.360;12.362;2023-03-04T14:55:30;7.23;;;3.20;;
11588;SDS011;5850;51.360;12.362;2023-03-04T15:00:36;6.80;;;2.70;;
11588;SDS011;5850;51.360;12.362;2023-03-04T15:03:14;5.03;;;2.33;;
11588;SDS011;5850;51.360;12.362;2023-03-04T15:05:49;6.80;;;3.03;;
11588;SDS011;5850;51.360;12.362;2023-03-04T15:08:21;4.60;;;2.47;;
11588;SDS011;5850;51.360;12.362;2023-03-04T15:10:54;8.30;;;2.80;;
11588;SDS011;5850;51.360;12.362;2023-03-04T15:13:38;4.60;;;2.73;;
11588;SDS011;5850;51.360;12.362;2023-03-04T15:16:08;6.73;;;3.00;;
11588;SDS011;5850;51.360;12.362;2023-03-04T15:18:53;3.27;;;2.60;;
11588;SDS011;5850;51.360;12.362;2023-03-04T15:24:06;6.20;;;3.50;;
11588;SDS011;5850;51.360;12.362;2023-03-04T15:26:37;8.00;;;3.60;;
11588;SDS011;5850;51.360;12.362;2023-03-04T15:29:15;5.70;;;3.53;;
11588;SDS011;5850;51.360;12.362;2023-03-04T15:31:46;6.53;;;3.57;;
11588;SDS011;5850;51.360;12.362;2023-03-04T15:34:15;7.50;;;2.70;;
11588;SDS011;5850;51.360;12.362;2023-03-04T15:36:47;7.57;;;3.60;;
11588;SDS011;5850;51.360;12.362;2023-03-04T15:39:17;5.57;;;2.70;;
11588;SDS011;5850;51.360;12.362;2023-03-04T15:41:46;4.13;;;3.07;;
11588;SDS011;5850;51.360;12.362;2023-03-04T15:44:15;6.37;;;3.07;;
11588;SDS011;5850;51.360;12.362;2023-03-04T15:46:44;3.37;;;2.07;;
11588;SDS011;5850;51.360;12.362;2023-03-04T15:49:12;5.60;;;2.07;;
11588;SDS011;5850;51.360;12.362;2023-03-04T15:51:40;3.43;;;1.90;;
11588;SDS011;5850;51.360;12.362;2023-03-04T15:54:09;3.57;;;1.43;;
11588;SDS011;5850;51.360;12.362;2023-03-04T15:56:41;6.23;;;2.23;;
11588;SDS011;5850;51.360;12.362;2023-03-04T15:59:10;7.40;;;3.90;;
11588;SDS011;5850;51.360;12.362;2023-03-04T16:01:41;13.17;;;6.33;;
11588;SDS011;5850;51.360;12.362;2023-03-04T16:04:10;17.47;;;9.20;;
11588;SDS011;5850;51.360;12.362;2023-03-04T16:06:42;10.40;;;5.27;;
11588;SDS011;5850;51.360;12.362;2023-03-04T16:09:13;3.77;;;2.53;;
11588;SDS011;5850;51.360;12.362;2023-03-04T16:11:43;4.50;;;2.40;;
11588;SDS011;5850;51.360;12.362;2023-03-04T16:14:13;6.47;;;2.90;;
11588;SDS011;5850;51.360;12.362;2023-03-04T16:16:42;3.27;;;2.20;;
11588;SDS011;5850;51.360;12.362;2023-03-04T16:19:12;4.27;;;1.70;;
11588;SDS011;5850;51.360;12.362;2023-03-04T16:21:40;5.63;;;2.03;;
11588;SDS011;5850;51.360;12.362;2023-03-04T16:24:11;4.57;;;1.90;;
11588;SDS011;5850;51.360;12.362;2023-03-04T16:26:44;5.13;;;1.77;;
11588;SDS011;5850;51.360;12.362;2023-03-04T16:29:14;5.33;;;2.33;;
11588;SDS011;5850;51.360;12.362;2023-03-04T16:31:42;5.13;;;1.97;;
11588;SDS011;5850;51.360;12.362;2023-03-04T16:34:11;5.37;;;2.10;;
11588;SDS011;5850;51.360;12.362;2023-03-04T16:36:39;2.70;;;1.97;;
11588;SDS011;5850;51.360;12.362;2023-03-04T16:39:10;3.30;;;2.03;;
11588;SDS011;5850;51.360;12.362;2023-03-04T16:41:47;4.17;;;2.57;;
11588;SDS011;5850;51.360;12.362;2023-03-04T16:44:16;7.10;;;2.93;;
11588;SDS011;5850;51.360;12.362;2023-03-04T16:46:44;5.20;;;2.63;;
11588;SDS011;5850;51.360;12.362;2023-03-04T16:49:15;5.67;;;1.87;;
11588;SDS011;5850;51.360;12.362;2023-03-04T16:51:44;4.67;;;2.13;;
11588;SDS011;5850;51.360;12.362;2023-03-04T16:54:17;5.97;;;1.90;;
11588;SDS011;5850;51.360;12.362;2023-03-04T16:56:55;4.13;;;2.00;;
11588;SDS011;5850;51.360;12.362;2023-03-04T16:59:25;6.97;;;2.07;;
11588;SDS011;5850;51.360;12.362;2023-03-04T17:01:54;2.73;;;1.70;;
11588;SDS011;5850;51.360;12.362;2023-03-04T17:04:23;4.10;;;1.83;;
11588;SDS011;5850;51.360;12.362;2023-03-04T17:06:51;2.93;;;1.90;;
11588;SDS011;5850;51.360;12.362;2023-03-04T17:09:19;5.77;;;1.77;;
11588;SDS011;5850;51.360;12.362;2023-03-04T17:11:48;4.57;;;1.53;;
11588;SDS011;5850;51.360;12.362;2023-03-04T17:14:18;3.03;;;1.90;;